Time;durP1;ratioP1;P1;durP2;ratioP2;P2;SDS_P1;SDS_P2;PMS_P1;PMS_P2;Temp;Humidity;BMP_temperature;BMP_pressure;BME280_temperature;BME280_humidity;BME280_pressure;Samples;Min_cycle;Max_cycle;Signal;HPM_P1;HPM_P2
2022/06/22 00:00:19;;;;;;;20.65;11.30;;;13.10;99.90;;;;;;4928292;28;259328;-69
2022/06/22 00:02:50;;;;;;;20.88;10.38;;;13.00;99.90;;;;;;4964797;28;205609;-68
2022/06/22 00:05:19;;;;;;;17.30;9.97;;;13.00;99.90;;;;;;4933930;28;211477;-68
2022/06/22 00:07:51;;;;;;;17.55;10.70;;;12.90;99.90;;;;;;4938875;28;206389;-68
2022/06/22 00:10:28;;;;;;;17.07;9.83;;;12.90;99.90;;;;;;4942015;28;224516;-69
2022/06/22 00:12:56;;;;;;;18.52;11.85;;;12.90;99.90;;;;;;4931675;28;206215;-69
2022/06/22 00:15:42;;;;;;;20.88;11.23;;;12.90;99.90;;;;;;4912608;28;254215;-68
2022/06/22 00:18:42;;;;;;;18.40;10.98;;;12.80;99.90;;;;;;4975432;28;20055;-69
2022/06/22 00:21:14;;;;;;;19.13;11.30;;;12.70;99.90;;;;;;4855210;28;212808;-69
2022/06/22 00:23:42;;;;;;;17.38;11.18;;;12.70;99.90;;;;;;4922716;29;20580;-69
2022/06/22 00:26:23;;;;;;;19.95;11.02;;;12.60;99.90;;;;;;4865146;28;213934;-69
2022/06/22 00:29:17;;;;;;;19.80;10.70;;;12.60;99.90;;;;;;4930444;28;20052;-69
2022/06/22 00:31:56;;;;;;;17.60;11.07;;;12.60;99.90;;;;;;4859392;28;210757;-68
2022/06/22 00:34:32;;;;;;;18.27;10.02;;;12.60;99.90;;;;;;4910001;28;100646;-67
2022/06/22 00:37:03;;;;;;;16.60;10.80;;;12.50;99.90;;;;;;4839623;29;222958;-68
2022/06/22 00:39:29;;;;;;;17.40;10.77;;;12.50;99.90;;;;;;4890621;29;20360;-68
2022/06/22 00:42:24;;;;;;;17.08;10.30;;;12.40;99.90;;;;;;4851638;29;102588;-68
2022/06/22 00:45:34;;;;;;;13.52;9.52;;;12.40;99.90;;;;;;4909957;28;160581;-68
2022/06/22 00:48:27;;;;;;;15.63;9.50;;;12.30;99.90;;;;;;4883033;28;207705;-69
2022/06/22 00:51:12;;;;;;;14.55;9.10;;;12.30;99.90;;;;;;4861709;29;206065;-68
2022/06/22 00:53:44;;;;;;;13.95;8.65;;;12.20;99.90;;;;;;4915343;29;20044;-67
2022/06/22 00:56:16;;;;;;;14.13;8.65;;;12.20;99.90;;;;;;4861707;29;203584;-68
2022/06/22 00:59:01;;;;;;;13.70;8.57;;;12.20;99.90;;;;;;4961269;28;20484;-68
2022/06/22 01:01:37;;;;;;;13.27;8.88;;;12.10;99.90;;;;;;4920073;28;213501;-68
2022/06/22 01:04:06;;;;;;;15.82;10.02;;;12.10;99.90;;;;;;4963287;28;20063;-67
2022/06/22 01:07:04;;;;;;;13.20;9.02;;;12.00;99.90;;;;;;4920331;28;134875;-69
2022/06/22 01:09:56;;;;;;;12.68;8.80;;;12.00;99.90;;;;;;4947106;28;270384;-68
2022/06/22 01:12:25;;;;;;;13.23;8.05;;;11.90;99.90;;;;;;4902366;28;205419;-68
2022/06/22 01:15:18;;;;;;;12.57;7.13;;;11.90;99.90;;;;;;4970924;28;90493;-69
2022/06/22 01:18:00;;;;;;;12.77;7.57;;;11.80;99.90;;;;;;4929535;28;131658;-69
2022/06/22 01:20:48;;;;;;;11.38;7.25;;;11.80;99.90;;;;;;4918379;28;202277;-69
2022/06/22 01:23:18;;;;;;;13.30;7.90;;;11.80;99.90;;;;;;4979443;28;20039;-68
2022/06/22 01:25:58;;;;;;;12.13;7.80;;;11.70;99.90;;;;;;4905603;28;212810;-68
2022/06/22 01:28:25;;;;;;;14.70;7.60;;;11.70;99.90;;;;;;4964094;28;20047;-69
2022/06/22 01:31:02;;;;;;;13.30;7.40;;;11.60;99.90;;;;;;4916993;28;268828;-70
2022/06/22 01:33:33;;;;;;;13.10;7.75;;;11.60;99.90;;;;;;4950224;28;20059;-67
2022/06/22 01:36:05;;;;;;;14.20;8.30;;;11.60;99.90;;;;;;4913608;28;208439;-69
2022/06/22 01:38:37;;;;;;;14.55;7.85;;;11.50;99.90;;;;;;4966807;28;20051;-69
2022/06/22 01:41:22;;;;;;;15.00;9.00;;;11.50;99.90;;;;;;4919193;28;257707;-68
2022/06/22 01:44:03;;;;;;;15.85;10.57;;;11.50;99.90;;;;;;4963410;28;20431;-69
2022/06/22 01:46:59;;;;;;;15.10;10.00;;;11.50;99.90;;;;;;4912214;28;209342;-68
2022/06/22 01:49:35;;;;;;;14.60;10.13;;;11.40;99.90;;;;;;4946725;28;246892;-68
2022/06/22 01:52:25;;;;;;;14.50;9.07;;;11.50;99.90;;;;;;4947765;28;125745;-68
2022/06/22 01:54:57;;;;;;;13.02;8.15;;;11.50;99.90;;;;;;4953662;28;265046;-68
2022/06/22 01:57:31;;;;;;;13.65;8.57;;;11.40;99.90;;;;;;4915360;28;188859;-66
2022/06/22 02:00:06;;;;;;;11.52;7.78;;;11.40;99.90;;;;;;4951735;28;209297;-68
2022/06/22 02:02:44;;;;;;;13.88;8.50;;;11.40;99.90;;;;;;4919880;28;215380;-68
2022/06/22 02:05:33;;;;;;;13.52;7.72;;;11.40;99.90;;;;;;4937711;28;179394;-67
2022/06/22 02:08:22;;;;;;;11.27;6.97;;;11.30;99.90;;;;;;4894655;28;205823;-69
2022/06/22 02:10:59;;;;;;;14.60;6.60;;;11.20;99.90;;;;;;4912583;28;266653;-68
2022/06/22 02:13:37;;;;;;;11.45;6.30;;;11.20;99.90;;;;;;4982224;28;20563;-69
2022/06/22 02:16:26;;;;;;;10.80;6.13;;;11.20;99.90;;;;;;4913642;28;252067;-69
2022/06/22 02:18:57;;;;;;;10.43;5.93;;;11.10;99.90;;;;;;4958735;28;20073;-69
2022/06/22 02:21:52;;;;;;;10.63;5.90;;;11.00;99.90;;;;;;4923838;28;266252;-68
2022/06/22 02:24:18;;;;;;;11.20;6.35;;;11.00;99.90;;;;;;4953148;28;256780;-66
2022/06/22 02:26:56;;;;;;;9.65;5.70;;;11.00;99.90;;;;;;4939249;28;206221;-68
2022/06/22 02:29:27;;;;;;;10.27;5.95;;;11.00;99.90;;;;;;4949555;28;248298;-69
2022/06/22 02:31:57;;;;;;;11.70;7.05;;;10.90;99.90;;;;;;4931604;28;172481;-68
2022/06/22 02:34:24;;;;;;;15.17;10.30;;;10.90;99.90;;;;;;4966735;28;263598;-68
2022/06/22 02:36:53;;;;;;;12.82;9.25;;;10.80;99.90;;;;;;4906256;28;218982;-69
2022/06/22 02:39:22;;;;;;;13.57;10.15;;;10.80;99.90;;;;;;4948722;28;270942;-68
2022/06/22 02:44:39;;;;;;;14.10;9.52;;;10.70;99.90;;;;;;4952708;28;265528;-69
2022/06/22 02:47:20;;;;;;;14.02;9.88;;;10.60;99.90;;;;;;4937396;28;194971;-69
2022/06/22 02:50:19;;;;;;;14.55;10.38;;;10.60;99.90;;;;;;4954166;28;262706;-69
2022/06/22 02:53:06;;;;;;;12.38;8.40;;;10.60;99.90;;;;;;4935614;28;207516;-70
2022/06/22 02:55:35;;;;;;;12.88;9.70;;;10.50;99.90;;;;;;4901537;28;204486;-69
2022/06/22 02:58:03;;;;;;;16.35;9.73;;;10.50;99.90;;;;;;4965166;28;20070;-69
2022/06/22 03:00:33;;;;;;;14.30;8.85;;;10.60;99.90;;;;;;4907172;28;247545;-68
2022/06/22 03:03:12;;;;;;;13.43;8.68;;;10.50;99.90;;;;;;4961890;28;20097;-68
2022/06/22 03:05:40;;;;;;;12.57;8.55;;;10.50;99.90;;;;;;4898005;28;250817;-68
2022/06/22 03:08:07;;;;;;;13.02;8.57;;;10.50;99.90;;;;;;4957479;28;20505;-68
2022/06/22 03:10:57;;;;;;;13.70;8.93;;;10.50;99.90;;;;;;4921957;28;261565;-67
2022/06/22 03:13:28;;;;;;;13.30;9.07;;;10.40;99.90;;;;;;4975871;28;20061;-68
2022/06/22 03:15:54;;;;;;;;;;;10.40;99.90;;;;;;4905537;28;258053;-70
2022/06/22 03:18:26;;;;;;;13.68;9.18;;;10.40;99.90;;;;;;4951352;28;19933;-68
2022/06/22 03:21:00;;;;;;;12.35;8.48;;;10.30;99.90;;;;;;4908871;28;207023;-67
2022/06/22 03:23:42;;;;;;;13.77;9.18;;;10.30;99.90;;;;;;4963039;28;20440;-69
2022/06/22 03:26:19;;;;;;;12.60;8.48;;;10.30;99.90;;;;;;4904230;28;209286;-68
2022/06/22 03:29:03;;;;;;;14.35;10.70;;;10.20;99.90;;;;;;4971706;28;20066;-69
2022/06/22 03:31:51;;;;;;;14.40;9.77;;;10.30;99.90;;;;;;4907729;28;206995;-68
2022/06/22 03:34:33;;;;;;;13.10;9.43;;;10.30;99.90;;;;;;4950669;28;269160;-68
2022/06/22 03:37:11;;;;;;;13.15;8.90;;;10.30;99.90;;;;;;4919348;28;206734;-69
2022/06/22 03:39:43;;;;;;;12.43;8.70;;;10.30;99.90;;;;;;4951288;28;259313;-69
2022/06/22 03:42:15;;;;;;;12.35;9.07;;;10.30;99.90;;;;;;4923030;28;211001;-69
2022/06/22 03:45:00;;;;;;;13.45;8.18;;;10.30;99.90;;;;;;4956982;28;31511;-68
2022/06/22 03:47:34;;;;;;;10.80;7.63;;;10.30;99.90;;;;;;4936847;28;222954;-69
2022/06/22 03:50:11;;;;;;;11.80;8.38;;;10.30;99.90;;;;;;4953371;28;268463;-69
2022/06/22 03:52:49;;;;;;;11.45;8.77;;;10.20;99.90;;;;;;4909544;28;206666;-67
2022/06/22 03:55:20;;;;;;;28.98;11.40;;;10.20;99.90;;;;;;4942425;28;181905;-69
2022/06/22 03:57:51;;;;;;;98.13;12.95;;;10.20;99.90;;;;;;4959152;28;205882;-68
2022/06/22 04:00:17;;;;;;;;;;;10.20;99.90;;;;;;4921686;28;260933;-68
2022/06/22 04:02:44;;;;;;;90.72;14.13;;;10.10;99.90;;;;;;4977436;28;19925;-68
2022/06/22 04:05:17;;;;;;;47.80;11.90;;;10.00;99.90;;;;;;4943323;28;261253;-69
2022/06/22 04:07:44;;;;;;;102.70;13.77;;;10.00;99.90;;;;;;4906423;28;206095;-69
2022/06/22 04:10:30;;;;;;;31.90;11.68;;;10.00;99.90;;;;;;4965511;28;185593;-69
2022/06/22 04:12:58;;;;;;;88.13;12.45;;;10.00;99.90;;;;;;4907955;28;207877;-70
2022/06/22 04:15:47;;;;;;;30.00;11.05;;;10.00;99.90;;;;;;4917133;28;270940;-69
2022/06/22 04:18:24;;;;;;;77.85;12.32;;;10.10;99.90;;;;;;4944143;28;20121;-68
2022/06/22 04:21:04;;;;;;;52.78;11.63;;;10.10;99.90;;;;;;4921081;28;268534;-68
2022/06/22 04:23:44;;;;;;;24.08;11.07;;;10.20;99.90;;;;;;4972466;28;20512;-69
2022/06/22 04:26:20;;;;;;;75.28;13.25;;;10.20;99.90;;;;;;4923479;28;260412;-68
2022/06/22 04:28:51;;;;;;;39.50;11.13;;;10.30;99.90;;;;;;4981095;28;20034;-69
2022/06/22 04:31:33;;;;;;;79.47;12.07;;;10.30;99.90;;;;;;4920854;28;263037;-69
2022/06/22 04:34:06;;;;;;;130.68;13.57;;;10.40;99.90;;;;;;4970358;28;20049;-67
2022/06/22 04:36:32;;;;;;;132.77;12.98;;;10.40;99.90;;;;;;4896606;28;206726;-68
2022/06/22 04:39:26;;;;;;;22.08;9.57;;;10.50;99.90;;;;;;4956748;28;20049;-68
2022/06/22 04:41:53;;;;;;;15.73;10.13;;;10.60;99.90;;;;;;4925451;28;206576;-67
2022/06/22 04:44:26;;;;;;;15.30;9.95;;;10.70;99.90;;;;;;4946837;28;281472;-69
2022/06/22 04:47:03;;;;;;;14.38;10.20;;;10.70;99.90;;;;;;4922950;28;207556;-69
2022/06/22 04:49:35;;;;;;;16.27;11.38;;;10.90;99.90;;;;;;4952729;28;153283;-68
2022/06/22 04:52:10;;;;;;;;;;;11.00;99.90;;;;;;4924279;28;182988;-69
2022/06/22 04:54:40;;;;;;;14.52;9.73;;;11.10;99.90;;;;;;4951580;28;250725;-68
2022/06/22 04:57:32;;;;;;;13.68;9.98;;;11.10;99.90;;;;;;4936437;28;213455;-69
2022/06/22 05:00:01;;;;;;;14.43;10.55;;;11.20;99.90;;;;;;4949473;28;263176;-69
2022/06/22 05:02:28;;;;;;;13.82;10.05;;;11.30;99.90;;;;;;4918877;28;209737;-69
2022/06/22 05:05:02;;;;;;;14.20;10.32;;;11.40;99.90;;;;;;4941707;28;265923;-68
2022/06/22 05:07:44;;;;;;;14.65;10.85;;;11.50;99.90;;;;;;4918501;28;207299;-68
2022/06/22 05:10:18;;;;;;;18.08;11.82;;;11.60;99.90;;;;;;4951141;28;155173;-68
2022/06/22 05:12:58;;;;;;;14.80;11.10;;;11.70;99.90;;;;;;4905259;28;208911;-69
2022/06/22 05:15:34;;;;;;;18.58;13.20;;;11.80;99.90;;;;;;4914015;28;221577;-69
2022/06/22 05:18:03;;;;;;;16.83;12.27;;;12.00;99.90;;;;;;4958514;28;20070;-70
2022/06/22 05:21:05;;;;;;;17.07;11.63;;;12.00;99.90;;;;;;4900008;28;212002;-68
2022/06/22 05:23:32;;;;;;;17.48;11.65;;;12.10;99.90;;;;;;4953018;28;20058;-70
2022/06/22 05:26:04;;;;;;;18.67;12.50;;;12.20;99.90;;;;;;4903613;28;264428;-70
2022/06/22 05:28:39;;;;;;;18.65;10.98;;;12.30;99.90;;;;;;4953191;28;20547;-68
2022/06/22 05:31:10;;;;;;;19.33;13.95;;;12.40;99.90;;;;;;4915252;28;269823;-69
2022/06/22 05:33:41;;;;;;;18.50;12.77;;;12.50;99.90;;;;;;4975391;28;20061;-69
2022/06/22 05:36:12;;;;;;;20.58;12.73;;;12.60;99.90;;;;;;4921962;28;249457;-68
2022/06/22 05:38:45;;;;;;;19.95;13.57;;;12.80;99.90;;;;;;4979962;28;20050;-69
2022/06/22 05:41:15;;;;;;;23.55;14.52;;;12.90;99.90;;;;;;4912295;28;185402;-68
2022/06/22 05:43:41;;;;;;;23.38;14.52;;;13.00;99.90;;;;;;4971860;28;20058;-69
2022/06/22 05:46:09;;;;;;;20.92;13.55;;;13.20;99.90;;;;;;4905868;28;206060;-69
2022/06/22 05:48:43;;;;;;;21.58;14.38;;;13.40;99.90;;;;;;4972347;28;20054;-68
2022/06/22 05:51:21;;;;;;;22.08;14.93;;;13.60;99.90;;;;;;4915836;28;265737;-69
2022/06/22 05:54:19;;;;;;;18.98;13.32;;;13.80;99.90;;;;;;4970359;28;20080;-69
2022/06/22 05:56:57;;;;;;;21.05;14.07;;;14.10;99.90;;;;;;4909714;28;212364;-69
2022/06/22 05:59:28;;;;;;;27.85;13.82;;;14.30;99.90;;;;;;4944585;28;244251;-67
2022/06/22 06:02:10;;;;;;;20.98;12.30;;;14.60;99.90;;;;;;4938215;28;213954;-68
2022/06/22 06:05:00;;;;;;;20.17;12.30;;;14.80;99.90;;;;;;4941498;28;139750;-68
2022/06/22 06:07:39;;;;;;;19.73;12.32;;;15.10;99.90;;;;;;4933219;28;208611;-67
2022/06/22 06:10:16;;;;;;;15.65;9.70;;;15.30;99.90;;;;;;4953776;28;28831;-68
2022/06/22 06:12:58;;;;;;;15.57;9.80;;;15.60;99.90;;;;;;4918395;28;210052;-67
2022/06/22 06:15:25;;;;;;;19.83;10.40;;;15.80;99.90;;;;;;4902170;28;210612;-67
2022/06/22 06:17:57;;;;;;;17.10;9.82;;;16.10;99.90;;;;;;4976364;28;20189;-67
2022/06/22 06:20:33;;;;;;;17.80;9.23;;;16.30;99.90;;;;;;4916176;28;206900;-66
2022/06/22 06:23:04;;;;;;;15.02;9.38;;;16.60;99.90;;;;;;4967476;28;20053;-66
2022/06/22 06:28:34;;;;;;;14.50;8.35;;;17.10;99.90;;;;;;4971082;28;20061;-68
2022/06/22 06:31:20;;;;;;;15.65;8.20;;;17.30;99.90;;;;;;4932846;28;206895;-67
2022/06/22 06:33:46;;;;;;;13.43;8.30;;;17.50;99.90;;;;;;4975071;28;20050;-67
2022/06/22 06:36:38;;;;;;;15.52;7.75;;;17.70;99.90;;;;;;4918984;28;270475;-68
2022/06/22 06:39:12;;;;;;;15.90;7.85;;;17.90;99.90;;;;;;4960878;28;266979;-67
2022/06/22 06:41:47;;;;;;;14.10;7.32;;;18.10;99.90;;;;;;4943672;28;206305;-67
2022/06/22 06:44:18;;;;;;;14.60;7.40;;;18.30;99.90;;;;;;4953417;28;264732;-66
2022/06/22 06:46:53;;;;;;;11.77;6.63;;;18.50;99.90;;;;;;4910796;28;212772;-68
2022/06/22 06:49:40;;;;;;;13.93;7.00;;;18.70;99.90;;;;;;4953280;28;254016;-66
2022/06/22 06:52:26;;;;;;;14.82;7.32;;;19.00;99.90;;;;;;4937749;28;209489;-67
2022/06/22 06:55:14;;;;;;;12.00;6.80;;;19.20;99.90;;;;;;4955325;28;261715;-66
2022/06/22 06:58:12;;;;;;;12.30;6.32;;;19.40;99.90;;;;;;4911375;28;206148;-68
2022/06/22 07:00:39;;;;;;;12.02;6.53;;;19.60;99.90;;;;;;4903361;28;206213;-68
2022/06/22 07:03:20;;;;;;;12.85;6.03;;;19.80;99.90;;;;;;4965875;28;20512;-67
2022/06/22 07:05:47;;;;;;;12.45;4.93;;;20.10;99.90;;;;;;4885374;28;228785;-68
2022/06/22 07:08:18;;;;;;;13.10;4.63;;;20.30;99.90;;;;;;4948069;28;20046;-68
2022/06/22 07:10:44;;;;;;;;;;;20.60;99.90;;;;;;4900035;28;257186;-67
2022/06/22 07:13:20;;;;;;;12.20;4.85;;;20.70;99.90;;;;;;4944554;28;20150;-68
2022/06/22 07:15:51;;;;;;;12.60;4.75;;;20.90;99.90;;;;;;4904472;28;207496;-68
2022/06/22 07:18:23;;;;;;;12.35;5.32;;;21.10;99.90;;;;;;4966862;28;20058;-67
2022/06/22 07:21:08;;;;;;;11.93;5.00;;;21.30;99.90;;;;;;4912148;28;210325;-68
2022/06/22 07:24:00;;;;;;;12.90;5.53;;;21.40;99.90;;;;;;4965228;28;20413;-67
2022/06/22 07:26:36;;;;;;;13.15;4.68;;;21.60;99.10;;;;;;4849573;29;227723;-67
2022/06/22 07:29:16;;;;;;;11.98;5.03;;;21.40;99.90;;;;;;4901043;29;20056;-67
2022/06/22 07:31:52;;;;;;;12.75;5.18;;;21.60;99.90;;;;;;4840395;29;215132;-67
2022/06/22 07:34:46;;;;;;;14.13;5.10;;;21.80;99.10;;;;;;4890970;29;31749;-67
2022/06/22 07:37:27;;;;;;;14.75;4.90;;;21.90;96.70;;;;;;4808603;29;206920;-68
2022/06/22 07:40:05;;;;;;;14.18;4.75;;;22.10;97.90;;;;;;4874053;29;240141;-68
2022/06/22 07:42:32;;;;;;;13.60;5.07;;;22.30;98.50;;;;;;4858925;29;208813;-68
2022/06/22 07:44:58;;;;;;;12.75;4.75;;;22.60;97.40;;;;;;4896298;29;59154;-67
2022/06/22 07:47:40;;;;;;;13.18;5.40;;;22.80;97.50;;;;;;4874836;29;74232;-67
2022/06/22 07:50:18;;;;;;;11.85;5.13;;;23.10;94.00;;;;;;4895592;28;91657;-68
2022/06/22 07:52:55;;;;;;;12.88;5.00;;;23.10;95.40;;;;;;4842944;29;208444;-70
2022/06/22 07:55:31;;;;;;;13.60;4.95;;;23.30;94.40;;;;;;4834846;29;209290;-67
2022/06/22 07:58:14;;;;;;;13.77;4.93;;;23.40;95.00;;;;;;4876971;29;20442;-68
2022/06/22 08:00:42;;;;;;;12.85;5.00;;;23.70;94.00;;;;;;4842975;28;231480;-67
2022/06/22 08:03:20;;;;;;;10.55;4.00;;;23.80;93.70;;;;;;4907644;28;20915;-68
2022/06/22 08:05:49;;;;;;;12.02;4.50;;;24.00;92.70;;;;;;4867757;28;214514;-68
2022/06/22 08:08:26;;;;;;;12.93;4.75;;;24.30;90.90;;;;;;4905011;29;20066;-68
2022/06/22 08:11:23;;;;;;;11.32;4.63;;;24.50;86.90;;;;;;4891108;28;202840;-68
2022/06/22 08:13:58;;;;;;;11.35;4.45;;;24.70;86.80;;;;;;4950134;28;20063;-68
2022/06/22 08:16:33;;;;;;;12.30;4.82;;;24.70;86.00;;;;;;4916753;28;257417;-68
2022/06/22 08:19:01;;;;;;;10.50;4.18;;;24.90;82.10;;;;;;4971797;28;20141;-68
2022/06/22 08:21:28;;;;;;;11.82;4.15;;;25.00;81.90;;;;;;4928841;28;205512;-69
2022/06/22 08:23:55;;;;;;;11.90;3.97;;;25.20;79.30;;;;;;4972574;28;20058;-68
2022/06/22 08:26:31;;;;;;;11.38;4.15;;;25.30;75.20;;;;;;4921182;28;258772;-68
2022/06/22 08:28:59;;;;;;;12.57;4.40;;;25.40;75.20;;;;;;4964846;28;20294;-66
2022/06/22 08:31:36;;;;;;;11.18;3.83;;;25.50;73.10;;;;;;4922372;28;277566;-67
2022/06/22 08:34:05;;;;;;;9.82;3.55;;;25.60;68.90;;;;;;4964018;28;20147;-67
2022/06/22 08:36:57;;;;;;;9.90;3.60;;;25.70;67.90;;;;;;4928701;28;192703;-66
2022/06/22 08:39:34;;;;;;;11.05;3.83;;;25.90;68.70;;;;;;4949004;28;265606;-69
2022/06/22 08:42:19;;;;;;;11.35;4.28;;;26.10;68.50;;;;;;4948169;28;128804;-69
2022/06/22 08:45:04;;;;;;;12.55;3.83;;;26.30;68.50;;;;;;4954402;28;262448;-68
2022/06/22 08:47:48;;;;;;;12.32;4.30;;;26.50;69.10;;;;;;4936678;28;213332;-67
2022/06/22 08:50:48;;;;;;;12.90;3.97;;;26.60;65.20;;;;;;4938573;28;266501;-69
2022/06/22 08:53:58;;;;;;;9.82;3.53;;;26.80;65.10;;;;;;4941445;28;84622;-68
2022/06/22 08:56:45;;;;;;;9.45;3.20;;;26.80;63.70;;;;;;4930448;28;138149;-67
2022/06/22 08:59:20;;;;;;;10.70;2.90;;;27.00;60.00;;;;;;4946298;28;264898;-68
2022/06/22 09:02:17;;;;;;;10.90;3.80;;;27.00;63.30;;;;;;4939283;28;205881;-68
2022/06/22 09:05:01;;;;;;;10.32;3.30;;;27.10;60.50;;;;;;4939727;28;268784;-68
2022/06/22 09:08:03;;;;;;;11.02;3.20;;;27.20;61.60;;;;;;4939162;28;206789;-69
2022/06/22 09:10:38;;;;;;;11.73;3.30;;;27.30;57.30;;;;;;4908855;28;207591;-68
2022/06/22 09:13:05;;;;;;;9.77;3.00;;;27.00;57.70;;;;;;4960927;28;20510;-67
2022/06/22 09:16:01;;;;;;;10.18;2.80;;;27.00;57.60;;;;;;4911233;28;206458;-69
2022/06/22 09:18:27;;;;;;;11.00;2.80;;;26.90;55.40;;;;;;4964818;28;20046;-68
2022/06/22 09:21:02;;;;;;;8.82;3.00;;;26.90;55.20;;;;;;4911296;28;271671;-68
2022/06/22 09:23:38;;;;;;;12.27;3.17;;;27.00;54.50;;;;;;4954501;28;20472;-68
2022/06/22 09:26:25;;;;;;;10.77;2.80;;;27.10;55.20;;;;;;4912911;28;262086;-67
2022/06/22 09:29:01;;;;;;;8.65;2.60;;;27.30;56.70;;;;;;4972597;28;20057;-68
2022/06/22 09:31:30;;;;;;;9.55;2.72;;;27.70;56.20;;;;;;4923943;28;252724;-68
2022/06/22 09:34:40;;;;;;;9.27;2.72;;;27.50;54.20;;;;;;4964790;28;20057;-67
2022/06/22 09:37:41;;;;;;;10.65;2.95;;;27.50;53.10;;;;;;4909909;28;233148;-67
2022/06/22 09:40:19;;;;;;;10.95;2.97;;;28.10;54.50;;;;;;4965517;28;248683;-68
2022/06/22 09:43:04;;;;;;;10.38;2.47;;;28.30;52.40;;;;;;4921831;28;206970;-68
2022/06/22 09:46:24;;;;;;;9.75;2.50;;;28.60;50.10;;;;;;4917899;28;166538;-68
2022/06/22 09:49:15;;;;;;;11.35;3.03;;;29.20;50.90;;;;;;4962400;28;20069;-68
2022/06/22 09:51:59;;;;;;;10.57;2.92;;;29.60;48.70;;;;;;4909347;28;210371;-68
2022/06/22 09:58:05;;;;;;;8.90;2.38;;;29.80;50.30;;;;;;4899526;28;223696;-68
2022/06/22 10:00:55;;;;;;;8.95;2.85;;;30.20;48.40;;;;;;4888328;28;212497;-68
2022/06/22 10:03:49;;;;;;;11.45;2.90;;;29.60;47.30;;;;;;4961861;28;20083;-68
2022/06/22 10:06:30;;;;;;;10.77;2.70;;;29.50;47.60;;;;;;4888698;28;205439;-69
2022/06/22 10:09:20;;;;;;;11.30;2.53;;;29.40;48.10;;;;;;4965767;28;20058;-67
2022/06/22 10:11:58;;;;;;;8.40;2.40;;;29.60;47.00;;;;;;4910505;28;117700;-69
2022/06/22 10:14:58;;;;;;;8.82;2.10;;;29.70;47.10;;;;;;4944677;28;181345;-68
2022/06/22 10:17:37;;;;;;;9.40;2.60;;;29.80;44.40;;;;;;4905701;28;200488;-68
2022/06/22 10:20:22;;;;;;;8.75;2.60;;;29.80;46.30;;;;;;4946357;28;207034;-68
2022/06/22 10:23:16;;;;;;;9.80;2.72;;;30.30;47.00;;;;;;4921309;28;158678;-68
2022/06/22 10:26:13;;;;;;;10.13;3.20;;;30.70;47.90;;;;;;4916317;28;260336;-68
2022/06/22 10:29:00;;;;;;;13.00;3.35;;;31.20;47.40;;;;;;4967109;28;20042;-68
2022/06/22 10:31:33;;;;;;;9.85;3.08;;;31.60;46.00;;;;;;4924701;28;241277;-68
2022/06/22 10:34:16;;;;;;;11.45;3.20;;;31.40;45.60;;;;;;4974132;28;21308;-69
2022/06/22 10:36:57;;;;;;;10.57;3.17;;;31.60;46.10;;;;;;4917431;28;215204;-69
2022/06/22 10:39:44;;;;;;;9.85;2.65;;;32.00;46.70;;;;;;4949777;28;265144;-68
2022/06/22 10:45:41;;;;;;;9.82;2.90;;;32.30;44.10;;;;;;4916901;28;261439;-68
2022/06/22 10:49:02;;;;;;;11.98;2.85;;;32.20;43.30;;;;;;4969060;28;20046;-68
2022/06/22 10:51:58;;;;;;;9.90;2.88;;;32.30;44.10;;;;;;4871509;28;206703;-69
2022/06/22 10:54:29;;;;;;;8.90;2.60;;;32.40;42.60;;;;;;4912206;29;151341;-69
2022/06/22 10:57:07;;;;;;;9.43;2.40;;;32.40;41.90;;;;;;4879673;29;205172;-68
2022/06/22 11:00:14;;;;;;;11.43;2.55;;;32.40;41.40;;;;;;4912914;28;133747;-69
2022/06/22 11:02:49;;;;;;;8.43;2.30;;;32.70;43.80;;;;;;4873901;29;214009;-68
2022/06/22 11:05:36;;;;;;;10.48;2.90;;;33.20;43.10;;;;;;4874162;29;206414;-68
2022/06/22 11:08:18;;;;;;;8.93;2.35;;;33.30;41.90;;;;;;4888962;29;207028;-69
2022/06/22 11:11:08;;;;;;;10.15;2.55;;;33.30;42.20;;;;;;4863804;29;215120;-68
2022/06/22 11:13:59;;;;;;;10.65;2.83;;;33.00;40.90;;;;;;4926744;29;20086;-67
2022/06/22 11:16:40;;;;;;;9.52;2.47;;;32.60;41.10;;;;;;4857094;28;209188;-67
2022/06/22 11:19:18;;;;;;;10.55;2.20;;;32.20;40.70;;;;;;4902552;28;218422;-69
2022/06/22 11:21:57;;;;;;;9.00;2.50;;;31.90;40.20;;;;;;4907339;28;207168;-68
2022/06/22 11:24:54;;;;;;;10.73;2.45;;;32.10;40.50;;;;;;4953450;28;258151;-69
2022/06/22 11:30:56;;;;;;;9.68;2.40;;;32.00;41.90;;;;;;4912898;28;257231;-69
2022/06/22 11:33:50;;;;;;;10.50;2.72;;;32.30;41.90;;;;;;4978917;28;20046;-70
2022/06/22 11:36:24;;;;;;;11.52;2.25;;;32.70;40.80;;;;;;4925138;28;272512;-70
2022/06/22 11:39:28;;;;;;;10.05;2.40;;;32.60;41.40;;;;;;4974728;28;20468;-68
2022/06/22 11:42:04;;;;;;;9.70;2.30;;;32.40;39.90;;;;;;4912494;28;211589;-69
2022/06/22 11:47:56;;;;;;;8.13;1.83;;;32.50;39.00;;;;;;4949041;28;122169;-69
2022/06/22 11:50:46;;;;;;;8.27;2.00;;;32.70;39.10;;;;;;4917179;28;116071;-71
2022/06/22 11:53:27;;;;;;;8.13;2.10;;;33.00;40.20;;;;;;4963337;28;20172;-69
2022/06/22 11:56:00;;;;;;;8.68;2.10;;;33.40;40.50;;;;;;4910956;28;206563;-69
2022/06/22 11:58:41;;;;;;;9.82;2.42;;;33.80;39.40;;;;;;4964811;28;20050;-69
2022/06/22 12:01:16;;;;;;;9.00;2.20;;;33.50;37.20;;;;;;4921266;28;253523;-68
2022/06/22 12:04:25;;;;;;;9.35;2.00;;;33.30;37.00;;;;;;4975310;28;20522;-69
2022/06/22 12:07:00;;;;;;;10.40;2.17;;;33.40;39.20;;;;;;4893321;28;216347;-69
2022/06/22 12:09:51;;;;;;;8.68;2.00;;;33.70;39.30;;;;;;4948849;28;252314;-69
2022/06/22 12:12:31;;;;;;;7.25;1.63;;;34.10;39.60;;;;;;4924577;28;215850;-69
2022/06/22 12:15:32;;;;;;;9.40;2.15;;;34.60;39.20;;;;;;4952694;28;240619;-69
2022/06/22 12:18:51;;;;;;;8.27;2.15;;;34.90;38.40;;;;;;4886707;29;206666;-70
2022/06/22 12:21:45;;;;;;;8.60;1.90;;;34.80;38.40;;;;;;4843889;29;206816;-70
2022/06/22 12:24:32;;;;;;;7.60;2.17;;;34.80;37.30;;;;;;4872064;29;223729;-71
2022/06/22 12:27:26;;;;;;;9.98;2.40;;;34.70;37.00;;;;;;4860380;29;207292;-70
2022/06/22 12:30:07;;;;;;;9.38;2.53;;;33.90;37.50;;;;;;4878985;29;234618;-70
2022/06/22 12:32:40;;;;;;;8.00;2.47;;;33.60;36.50;;;;;;4844896;29;207033;-70
2022/06/22 12:35:23;;;;;;;8.57;2.63;;;33.40;38.50;;;;;;4887833;29;33933;-70
2022/06/22 12:37:59;;;;;;;9.27;2.72;;;33.50;39.00;;;;;;4844095;29;213487;-69
2022/06/22 12:40:34;;;;;;;9.93;2.80;;;33.20;39.40;;;;;;4829566;29;218668;-71
2022/06/22 12:43:00;;;;;;;9.13;2.53;;;33.40;39.40;;;;;;4899564;29;20064;-70
2022/06/22 12:45:53;;;;;;;10.55;2.72;;;32.70;38.80;;;;;;4842096;29;207205;-70
2022/06/22 12:48:26;;;;;;;9.55;2.72;;;32.20;40.60;;;;;;4902431;29;20497;-70
2022/06/22 12:51:18;;;;;;;9.77;2.67;;;32.60;39.80;;;;;;4847780;29;206609;-70
2022/06/22 12:53:50;;;;;;;7.53;2.10;;;33.10;40.50;;;;;;4888284;29;20047;-71
2022/06/22 12:56:43;;;;;;;8.68;2.67;;;33.60;40.70;;;;;;4878701;28;249887;-71
2022/06/22 12:59:16;;;;;;;9.25;2.53;;;33.40;38.80;;;;;;4966291;28;262811;-70
2022/06/22 13:01:42;;;;;;;8.13;2.25;;;33.00;39.40;;;;;;4925721;28;210153;-71
2022/06/22 13:04:18;;;;;;;9.05;2.63;;;32.90;39.30;;;;;;4943433;28;264058;-70
2022/06/22 13:07:00;;;;;;;7.50;2.40;;;32.80;37.00;;;;;;4926832;28;208807;-72
2022/06/22 13:09:28;;;;;;;9.00;2.60;;;32.10;39.20;;;;;;4949462;28;249974;-72
2022/06/22 13:11:58;;;;;;;10.23;2.50;;;32.10;38.80;;;;;;4933924;28;213185;-74
2022/06/22 13:14:52;;;;;;;9.60;2.67;;;31.90;39.40;;;;;;4951261;28;275827;-72
2022/06/22 13:17:37;;;;;;;8.63;2.67;;;31.90;39.50;;;;;;4937726;28;133597;-71
2022/06/22 13:20:32;;;;;;;9.25;2.50;;;32.20;40.00;;;;;;4963075;28;108419;-71
2022/06/22 13:23:08;;;;;;;8.60;2.30;;;32.80;40.10;;;;;;4922299;28;224236;-72
2022/06/22 13:25:40;;;;;;;8.30;2.30;;;32.70;39.00;;;;;;4922589;28;206818;-73
2022/06/22 13:28:24;;;;;;;9.00;2.75;;;32.50;40.10;;;;;;4975679;28;20051;-71
2022/06/22 13:30:57;;;;;;;9.35;2.33;;;32.50;39.00;;;;;;4932537;28;103704;-71
2022/06/22 13:33:39;;;;;;;8.13;2.45;;;32.50;41.40;;;;;;4974980;28;20197;-71
2022/06/22 13:36:16;;;;;;;9.75;2.58;;;32.70;39.90;;;;;;4911776;28;211483;-72
2022/06/22 13:38:54;;;;;;;9.65;2.45;;;32.60;40.30;;;;;;4977415;28;20054;-73
2022/06/22 13:41:48;;;;;;;7.60;2.05;;;32.90;39.70;;;;;;4918462;28;206897;-73
2022/06/22 13:44:50;;;;;;;9.35;2.33;;;33.00;39.60;;;;;;4959502;28;247442;-72
2022/06/22 13:47:44;;;;;;;7.85;2.10;;;32.40;40.00;;;;;;4857427;28;206529;-71
2022/06/22 13:50:32;;;;;;;9.57;2.47;;;32.50;40.90;;;;;;4915768;28;64333;-73
2022/06/22 13:53:37;;;;;;;9.15;2.45;;;32.90;39.70;;;;;;4901352;28;207148;-72